Accueil
METAR-TAF:

METAR-TAF

Aéroports :

Aéroport de Perth

Perth, Australie

latitude: 31-56S, longitude: 115-57E, altitude: 20 m

Observation

Le bulletin a été fait il y a 14 minutes, à 21:00 UTC
Vent 10 kt de est/nord-est
Température 8°C
Humidité 71%
Pression 1025 hPa
Visibilité 10 km ou plus
pas de nuages en-dessous de 1500 mètres et pas de cumulonimbus.

METAR: YPPH 172100Z 07010KT CAVOK 08/03 Q1025 NOSIG

Heure: 05:14 (21:14 UTC)

Prévision

Le bulletin a été fait il y a 4 heures et 6 minutes, à 17:08 UTC
Prévision valable du 17 à 18 UTC au 18 à 24 UTC
Vent 5 kt de est
Visibilité 10 km ou plus
pas de nuages en-dessous de 1500 mètres et pas de cumulonimbus.
A partir de 18 à 0100 UTC
Vent 10 kt de est/nord-est
Visibilité 10 km ou plus
pas de nuages en-dessous de 1500 mètres et pas de cumulonimbus.

TAF: YPPH 171708Z 1718/1824 10005KT CAVOK FM180100 06010KT CAVOK

Observations et prévisions météorologiques de plus de 4000 aéroports (messages METAR et TAF).

Les stations disponibles sont représentées par des disques jaunes et rouges sur la carte.

Passer la souris dessus pour voir le nom de la station.

Cliquer dessus pour voir les observations et prévisions météorologiques.

Pour changer de carte: cliquez sur les boutons verts avec une croix noire pour zoomer, sur le bouton vert avec un tiret pour effectuer un zoom arrière, ou sur les flèches vertes pour les cartes adjacentes.


METAR-TAF: